createdAt,value
2022-12-20T00:00:09.623Z,1014.02
2022-12-20T00:01:09.618Z,1013.97
2022-12-20T00:02:09.651Z,1013.96
2022-12-20T00:03:09.624Z,1013.92
2022-12-20T00:04:09.568Z,1013.95
2022-12-20T00:05:09.564Z,1013.97
2022-12-20T00:06:09.552Z,1014.00
2022-12-20T00:07:09.543Z,1014.01
2022-12-20T00:08:09.526Z,1014.02
2022-12-20T00:09:09.518Z,1014.07
2022-12-20T00:10:09.508Z,1014.04
2022-12-20T00:11:09.512Z,1014.08
2022-12-20T00:12:09.481Z,1014.05
2022-12-20T00:13:09.467Z,1014.05
2022-12-20T00:14:09.451Z,1014.04
2022-12-20T00:15:09.447Z,1014.00
2022-12-20T00:16:09.433Z,1013.96
2022-12-20T00:17:09.432Z,1013.98
2022-12-20T00:18:09.540Z,1013.96
2022-12-20T00:19:09.393Z,1013.94
2022-12-20T00:20:09.385Z,1013.98
2022-12-20T00:21:09.403Z,1013.94
2022-12-20T00:22:09.367Z,1013.96
2022-12-20T00:23:09.348Z,1014.01
2022-12-20T00:24:09.335Z,1013.97
2022-12-20T00:25:09.331Z,1013.93
2022-12-20T00:26:09.320Z,1013.89
2022-12-20T00:27:09.306Z,1013.89
2022-12-20T00:28:09.287Z,1013.86
2022-12-20T00:29:09.284Z,1013.82
2022-12-20T00:30:09.273Z,1013.81
2022-12-20T00:31:09.309Z,1013.77
2022-12-20T00:32:09.387Z,1013.74
2022-12-20T00:33:09.233Z,1013.75
2022-12-20T00:34:09.219Z,1013.73
2022-12-20T00:35:09.204Z,1013.72
2022-12-20T00:36:09.195Z,1013.66
2022-12-20T00:37:09.184Z,1013.69
2022-12-20T00:38:09.175Z,1013.68
2022-12-20T00:39:09.155Z,1013.72
2022-12-20T00:40:09.149Z,1013.72
2022-12-20T00:41:09.132Z,1013.75
2022-12-20T00:42:09.122Z,1013.76
2022-12-20T00:43:09.111Z,1013.68
2022-12-20T00:44:09.095Z,1013.73
2022-12-20T00:45:09.079Z,1013.73
2022-12-20T00:46:09.109Z,1013.73
2022-12-20T00:47:09.113Z,1013.74
2022-12-20T00:48:09.048Z,1013.76
2022-12-20T00:49:09.039Z,1013.74
2022-12-20T00:50:09.027Z,1013.73
2022-12-20T00:51:09.009Z,1013.74
2022-12-20T00:52:09.004Z,1013.71
2022-12-20T00:53:08.997Z,1013.75
2022-12-20T00:54:08.995Z,1013.69
2022-12-20T00:55:08.988Z,1013.69
2022-12-20T00:56:08.955Z,1013.71
2022-12-20T00:57:08.945Z,1013.75
2022-12-20T00:58:08.932Z,1013.80
2022-12-20T00:59:08.921Z,1013.86
2022-12-20T01:00:08.924Z,1013.86
2022-12-20T01:01:08.949Z,1013.83
2022-12-20T01:02:09.130Z,1013.81
2022-12-20T01:03:09.036Z,1013.82
2022-12-20T01:04:08.863Z,1013.81
2022-12-20T01:05:08.850Z,1013.73
2022-12-20T01:06:08.834Z,1013.78
2022-12-20T01:07:08.830Z,1013.78
2022-12-20T01:08:08.806Z,1013.84
2022-12-20T01:09:08.815Z,1013.83
2022-12-20T01:10:08.789Z,1013.85
2022-12-20T01:11:08.789Z,1013.75
2022-12-20T01:12:08.764Z,1013.78
2022-12-20T01:13:08.749Z,1013.76
2022-12-20T01:14:08.759Z,1013.78
2022-12-20T01:15:08.728Z,1013.76
2022-12-20T01:16:08.762Z,1013.73
2022-12-20T01:17:08.707Z,1013.72
2022-12-20T01:18:08.690Z,1013.73
2022-12-20T01:19:08.678Z,1013.73
2022-12-20T01:20:08.668Z,1013.75
2022-12-20T01:21:08.656Z,1013.74
2022-12-20T01:22:08.648Z,1013.75
2022-12-20T01:23:08.646Z,1013.75
2022-12-20T01:24:08.621Z,1013.71
2022-12-20T01:25:08.606Z,1013.72
2022-12-20T01:26:08.592Z,1013.74
2022-12-20T01:27:08.581Z,1013.70
2022-12-20T01:28:08.572Z,1013.70
2022-12-20T01:29:08.566Z,1013.70
2022-12-20T01:30:08.553Z,1013.73
2022-12-20T01:31:08.528Z,1013.77
2022-12-20T01:32:08.581Z,1013.79
2022-12-20T01:33:08.553Z,1013.79
2022-12-20T01:34:08.778Z,1013.75
2022-12-20T01:35:08.485Z,1013.70
2022-12-20T01:36:08.483Z,1013.69
2022-12-20T01:37:08.470Z,1013.61
2022-12-20T01:38:08.461Z,1013.58
2022-12-20T01:39:08.449Z,1013.60
2022-12-20T01:40:08.440Z,1013.57
2022-12-20T01:41:08.421Z,1013.58
2022-12-20T01:42:08.404Z,1013.56
2022-12-20T01:43:08.408Z,1013.54
2022-12-20T01:44:08.380Z,1013.55
2022-12-20T01:45:08.368Z,1013.53
2022-12-20T01:46:08.400Z,1013.54
2022-12-20T01:47:08.348Z,1013.56
2022-12-20T01:48:08.335Z,1013.55
2022-12-20T01:49:08.326Z,1013.55
2022-12-20T01:50:08.307Z,1013.49
2022-12-20T01:51:08.307Z,1013.53
2022-12-20T01:52:08.291Z,1013.56
2022-12-20T01:53:08.272Z,1013.53
2022-12-20T01:54:08.264Z,1013.55
2022-12-20T01:55:08.244Z,1013.55
2022-12-20T01:56:08.244Z,1013.56
2022-12-20T01:57:08.246Z,1013.55
2022-12-20T01:58:08.226Z,1013.52
2022-12-20T01:59:08.208Z,1013.50
2022-12-20T02:00:08.193Z,1013.48
2022-12-20T02:01:08.245Z,1013.52
2022-12-20T02:02:08.379Z,1013.51
2022-12-20T02:03:08.364Z,1013.52
2022-12-20T02:04:08.165Z,1013.46
2022-12-20T02:05:08.135Z,1013.43
2022-12-20T02:06:08.118Z,1013.46
2022-12-20T02:07:08.104Z,1013.46
2022-12-20T02:08:08.095Z,1013.47
2022-12-20T02:09:08.084Z,1013.50
2022-12-20T02:10:08.081Z,1013.48
2022-12-20T02:11:08.058Z,1013.55
2022-12-20T02:12:08.059Z,1013.49
2022-12-20T02:13:08.039Z,1013.53
2022-12-20T02:14:08.022Z,1013.57
2022-12-20T02:15:08.017Z,1013.54
2022-12-20T02:16:08.080Z,1013.58
2022-12-20T02:17:08.038Z,1013.55
2022-12-20T02:18:07.974Z,1013.56
2022-12-20T02:19:07.986Z,1013.58
2022-12-20T02:20:07.955Z,1013.51
2022-12-20T02:21:07.943Z,1013.52
2022-12-20T02:22:07.927Z,1013.54
2022-12-20T02:23:07.919Z,1013.59
2022-12-20T02:24:07.910Z,1013.53
2022-12-20T02:25:07.899Z,1013.60
2022-12-20T02:26:07.882Z,1013.67
2022-12-20T02:27:07.871Z,1013.62
2022-12-20T02:28:07.858Z,1013.61
2022-12-20T02:29:07.849Z,1013.60
2022-12-20T02:30:07.854Z,1013.59
2022-12-20T02:31:07.821Z,1013.52
2022-12-20T02:32:07.939Z,1013.54
2022-12-20T02:33:07.797Z,1013.48
2022-12-20T02:34:07.788Z,1013.47
2022-12-20T02:35:07.783Z,1013.52
2022-12-20T02:36:07.814Z,1013.47
2022-12-20T02:37:07.752Z,1013.48
2022-12-20T02:38:07.740Z,1013.50
2022-12-20T02:39:07.729Z,1013.46
2022-12-20T02:40:07.719Z,1013.45
2022-12-20T02:41:07.704Z,1013.46
2022-12-20T02:42:07.689Z,1013.42
2022-12-20T02:43:07.685Z,1013.46
2022-12-20T02:44:07.665Z,1013.36
2022-12-20T02:45:07.669Z,1013.28
2022-12-20T02:46:07.708Z,1013.27
2022-12-20T02:47:07.635Z,1013.27
2022-12-20T02:48:07.616Z,1013.20
2022-12-20T02:49:07.634Z,1013.15
2022-12-20T02:50:07.593Z,1013.13
2022-12-20T02:51:07.640Z,1013.13
2022-12-20T02:52:07.574Z,1013.11
2022-12-20T02:53:07.557Z,1013.11
2022-12-20T02:54:07.549Z,1013.16
2022-12-20T02:55:07.545Z,1013.17
2022-12-20T02:56:07.526Z,1013.15
2022-12-20T02:57:07.514Z,1013.13
2022-12-20T02:58:07.498Z,1013.15
2022-12-20T02:59:07.492Z,1013.07
2022-12-20T03:00:07.477Z,1013.01
2022-12-20T03:01:07.493Z,1013.03
2022-12-20T03:02:07.674Z,1012.94
2022-12-20T03:03:07.568Z,1012.93
2022-12-20T03:04:07.429Z,1012.93
2022-12-20T03:05:07.421Z,1012.88
2022-12-20T03:06:07.472Z,1012.91
2022-12-20T03:07:07.398Z,1012.89
2022-12-20T03:08:07.383Z,1012.92
2022-12-20T03:09:07.376Z,1012.96
2022-12-20T03:10:07.364Z,1012.97
2022-12-20T03:11:07.349Z,1012.92
2022-12-20T03:12:07.332Z,1012.81
2022-12-20T03:13:28.343Z,1012.87
2022-12-20T03:14:07.312Z,1012.91
2022-12-20T03:15:07.304Z,1012.90
2022-12-20T03:16:07.350Z,1012.93
2022-12-20T03:17:07.332Z,1012.92
2022-12-20T03:18:07.272Z,1012.86
2022-12-20T03:19:07.253Z,1012.89
2022-12-20T03:20:07.246Z,1012.89
2022-12-20T03:21:07.233Z,1012.95
2022-12-20T03:22:07.223Z,1012.98
2022-12-20T03:23:07.210Z,1013.05
2022-12-20T03:24:07.197Z,1013.08
2022-12-20T03:25:07.183Z,1013.13
2022-12-20T03:26:07.177Z,1013.16
2022-12-20T03:27:07.186Z,1013.18
2022-12-20T03:28:07.145Z,1013.21
2022-12-20T03:29:07.161Z,1013.20
2022-12-20T03:30:07.152Z,1013.15
2022-12-20T03:31:07.158Z,1013.18
2022-12-20T03:32:07.102Z,1013.18
2022-12-20T03:33:07.094Z,1013.19
2022-12-20T03:34:07.081Z,1013.17
2022-12-20T03:35:07.071Z,1013.18
2022-12-20T03:36:07.053Z,1013.15
2022-12-20T03:37:07.089Z,1013.17
2022-12-20T03:38:07.034Z,1013.10
2022-12-20T03:39:07.041Z,1013.06
2022-12-20T03:40:07.009Z,1013.09
2022-12-20T03:41:07.012Z,1013.09
2022-12-20T03:42:06.990Z,1013.07
2022-12-20T03:43:06.979Z,1013.05
2022-12-20T03:44:07.016Z,1013.02
2022-12-20T03:45:06.954Z,1013.05
2022-12-20T03:46:06.962Z,1013.06
2022-12-20T03:47:06.930Z,1013.07
2022-12-20T03:48:06.924Z,1013.03
2022-12-20T03:49:06.907Z,1013.02
2022-12-20T03:50:06.892Z,1013.05
2022-12-20T03:51:06.882Z,1012.98
2022-12-20T03:52:06.872Z,1012.97
2022-12-20T03:53:06.861Z,1012.98
2022-12-20T03:54:06.847Z,1012.93
2022-12-20T03:55:06.845Z,1012.95
2022-12-20T03:56:06.828Z,1012.95
2022-12-20T03:57:06.815Z,1012.96
2022-12-20T03:58:06.802Z,1012.89
2022-12-20T03:59:06.796Z,1012.87
2022-12-20T04:00:06.794Z,1012.84
2022-12-20T04:01:06.801Z,1012.84
2022-12-20T04:02:06.893Z,1012.87
2022-12-20T04:03:06.935Z,1012.89
2022-12-20T04:04:06.798Z,1012.96
2022-12-20T04:05:06.720Z,1013.00
2022-12-20T04:06:06.706Z,1013.09
2022-12-20T04:07:06.697Z,1013.11
2022-12-20T04:08:06.685Z,1013.10
2022-12-20T04:09:06.679Z,1013.06
2022-12-20T04:10:06.661Z,1013.10
2022-12-20T04:11:06.650Z,1013.10
2022-12-20T04:12:06.643Z,1013.11
2022-12-20T04:13:06.631Z,1013.09
2022-12-20T04:14:06.614Z,1013.04
2022-12-20T04:15:06.615Z,1013.04
2022-12-20T04:16:06.636Z,1013.08
2022-12-20T04:17:06.590Z,1013.05
2022-12-20T04:18:06.568Z,1013.03
2022-12-20T04:19:06.564Z,1012.97
2022-12-20T04:20:06.548Z,1012.97
2022-12-20T04:21:06.530Z,1012.86
2022-12-20T04:22:06.633Z,1012.91
2022-12-20T04:23:06.526Z,1012.94
2022-12-20T04:24:06.502Z,1012.97
2022-12-20T04:25:06.490Z,1012.93
2022-12-20T04:26:06.490Z,1012.91
2022-12-20T04:27:06.471Z,1012.89
2022-12-20T04:28:06.452Z,1012.90
2022-12-20T04:29:06.438Z,1012.95
2022-12-20T04:30:06.424Z,1012.95
2022-12-20T04:31:06.451Z,1012.95
2022-12-20T04:32:06.404Z,1012.93
2022-12-20T04:33:06.407Z,1012.92
2022-12-20T04:34:06.383Z,1012.88
2022-12-20T04:35:06.370Z,1012.86
2022-12-20T04:36:06.367Z,1012.85
2022-12-20T04:37:06.352Z,1012.83
2022-12-20T04:38:06.344Z,1012.92
2022-12-20T04:39:06.364Z,1012.87
2022-12-20T04:40:06.321Z,1012.93
2022-12-20T04:41:06.325Z,1012.93
2022-12-20T04:42:06.293Z,1012.94
2022-12-20T04:43:06.279Z,1012.89
2022-12-20T04:44:06.316Z,1012.89
2022-12-20T04:45:06.288Z,1012.85
2022-12-20T04:46:06.301Z,1012.78
2022-12-20T04:47:06.235Z,1012.80
2022-12-20T04:48:37.134Z,1012.85
2022-12-20T04:49:06.273Z,1012.80
2022-12-20T04:50:06.201Z,1012.78
2022-12-20T04:51:06.185Z,1012.72
2022-12-20T04:52:06.177Z,1012.66
2022-12-20T04:53:06.203Z,1012.70
2022-12-20T04:54:06.175Z,1012.74
2022-12-20T04:55:06.152Z,1012.78
2022-12-20T04:56:06.164Z,1012.83
2022-12-20T04:57:06.126Z,1012.84
2022-12-20T04:58:07.916Z,1012.86
2022-12-20T04:59:06.090Z,1012.85
2022-12-20T05:00:06.087Z,1012.87
2022-12-20T05:01:06.066Z,1012.80
2022-12-20T05:02:06.136Z,1012.82
2022-12-20T05:03:06.294Z,1012.80
2022-12-20T05:04:06.092Z,1012.83
2022-12-20T05:05:06.024Z,1012.80
2022-12-20T05:06:06.011Z,1012.78
2022-12-20T05:07:06.000Z,1012.76
2022-12-20T05:08:06.056Z,1012.79
2022-12-20T05:09:05.978Z,1012.85
2022-12-20T05:10:05.960Z,1012.85
2022-12-20T05:11:05.960Z,1012.83
2022-12-20T05:12:05.958Z,1012.89
2022-12-20T05:13:09.355Z,1012.93
2022-12-20T05:14:05.920Z,1012.93
2022-12-20T05:15:05.918Z,1012.93
2022-12-20T05:16:05.968Z,1012.92
2022-12-20T05:17:05.879Z,1012.91
2022-12-20T05:18:05.869Z,1012.87
2022-12-20T05:19:05.861Z,1012.81
2022-12-20T05:20:05.860Z,1012.75
2022-12-20T05:21:05.840Z,1012.73
2022-12-20T05:22:05.820Z,1012.73
2022-12-20T05:23:05.838Z,1012.71
2022-12-20T05:24:05.812Z,1012.68
2022-12-20T05:25:05.811Z,1012.61
2022-12-20T05:26:05.836Z,1012.63
2022-12-20T05:27:05.770Z,1012.56
2022-12-20T05:28:05.773Z,1012.55
2022-12-20T05:29:05.741Z,1012.53
2022-12-20T05:30:05.783Z,1012.57
2022-12-20T05:31:05.765Z,1012.60
2022-12-20T05:32:05.719Z,1012.62
2022-12-20T05:33:05.717Z,1012.59
2022-12-20T05:34:05.686Z,1012.61
2022-12-20T05:35:05.676Z,1012.57
2022-12-20T05:36:05.702Z,1012.57
2022-12-20T05:37:05.646Z,1012.59
2022-12-20T05:38:05.632Z,1012.58
2022-12-20T05:39:05.623Z,1012.59
2022-12-20T05:40:05.617Z,1012.57
2022-12-20T05:41:05.602Z,1012.49
2022-12-20T05:42:05.599Z,1012.41
2022-12-20T05:43:05.577Z,1012.45
2022-12-20T05:44:05.586Z,1012.49
2022-12-20T05:45:05.562Z,1012.45
2022-12-20T05:46:05.620Z,1012.49
2022-12-20T05:47:05.618Z,1012.50
2022-12-20T05:48:05.522Z,1012.52
2022-12-20T05:49:05.506Z,1012.59
2022-12-20T05:50:05.734Z,1012.66
2022-12-20T05:51:05.489Z,1012.68
2022-12-20T05:52:05.479Z,1012.71
2022-12-20T05:53:11.241Z,1012.69
2022-12-20T05:54:05.452Z,1012.61
2022-12-20T05:55:05.442Z,1012.62
2022-12-20T05:56:05.433Z,1012.65
2022-12-20T05:57:05.427Z,1012.55
2022-12-20T05:58:05.411Z,1012.53
2022-12-20T05:59:05.392Z,1012.43
2022-12-20T06:00:05.543Z,1012.43
2022-12-20T06:01:05.375Z,1012.43
2022-12-20T06:02:05.432Z,1012.42
2022-12-20T06:03:05.518Z,1012.49
2022-12-20T06:04:05.373Z,1012.54
2022-12-20T06:05:05.324Z,1012.51
2022-12-20T06:06:10.187Z,1012.43
2022-12-20T06:07:05.307Z,1012.50
2022-12-20T06:08:05.288Z,1012.57
2022-12-20T06:09:05.279Z,1012.58
2022-12-20T06:10:05.271Z,1012.57
2022-12-20T06:11:05.262Z,1012.59
2022-12-20T06:12:05.245Z,1012.58
2022-12-20T06:13:05.252Z,1012.60
2022-12-20T06:14:05.221Z,1012.61
2022-12-20T06:15:05.214Z,1012.64
2022-12-20T06:16:05.212Z,1012.71
2022-12-20T06:17:05.184Z,1012.66
2022-12-20T06:18:05.203Z,1012.71
2022-12-20T06:19:05.178Z,1012.76
2022-12-20T06:20:05.174Z,1012.77
2022-12-20T06:21:05.148Z,1012.75
2022-12-20T06:22:05.158Z,1012.73
2022-12-20T06:23:05.210Z,1012.71
2022-12-20T06:24:05.109Z,1012.72
2022-12-20T06:25:05.096Z,1012.72
2022-12-20T06:26:05.081Z,1012.81
2022-12-20T06:27:05.079Z,1012.76
2022-12-20T06:28:05.069Z,1012.76
2022-12-20T06:29:05.092Z,1012.79
2022-12-20T06:30:05.047Z,1012.75
2022-12-20T06:31:05.019Z,1012.84
2022-12-20T06:32:05.215Z,1012.82
2022-12-20T06:33:05.005Z,1012.76
2022-12-20T06:34:05.011Z,1012.75
2022-12-20T06:35:04.979Z,1012.78
2022-12-20T06:36:04.973Z,1012.69
2022-12-20T06:37:04.992Z,1012.68
2022-12-20T06:38:04.946Z,1012.63
2022-12-20T06:39:09.601Z,1012.62
2022-12-20T06:40:04.939Z,1012.65
2022-12-20T06:41:04.914Z,1012.66
2022-12-20T06:42:04.900Z,1012.65
2022-12-20T06:43:04.888Z,1012.67
2022-12-20T06:44:04.879Z,1012.71
2022-12-20T06:45:04.890Z,1012.73
2022-12-20T06:46:04.919Z,1012.72
2022-12-20T06:47:04.954Z,1012.73
2022-12-20T06:48:04.834Z,1012.78
2022-12-20T06:49:04.828Z,1012.77
2022-12-20T06:50:04.816Z,1012.71
2022-12-20T06:51:04.799Z,1012.71
2022-12-20T06:52:04.830Z,1012.72
2022-12-20T06:53:04.774Z,1012.70
2022-12-20T06:54:04.771Z,1012.72
2022-12-20T06:55:04.755Z,1012.69
2022-12-20T06:56:04.739Z,1012.76
2022-12-20T06:57:04.733Z,1012.72
2022-12-20T06:58:04.724Z,1012.78
2022-12-20T06:59:04.720Z,1012.75
2022-12-20T07:00:04.700Z,1012.81
2022-12-20T07:01:04.798Z,1012.79
2022-12-20T07:02:05.515Z,1012.83
2022-12-20T07:03:04.780Z,1012.81
2022-12-20T07:04:04.650Z,1012.80
2022-12-20T07:05:04.637Z,1012.83
2022-12-20T07:06:04.647Z,1012.81
2022-12-20T07:07:04.634Z,1012.85
2022-12-20T07:08:04.632Z,1012.84
2022-12-20T07:09:04.596Z,1012.87
2022-12-20T07:10:04.580Z,1012.84
2022-12-20T07:11:04.584Z,1012.86
2022-12-20T07:12:04.571Z,1012.88
2022-12-20T07:13:04.554Z,1012.93
2022-12-20T07:14:04.542Z,1012.97
2022-12-20T07:15:04.524Z,1012.99
2022-12-20T07:16:04.624Z,1013.02
2022-12-20T07:17:04.585Z,1013.02
2022-12-20T07:18:04.491Z,1013.04
2022-12-20T07:19:04.496Z,1013.04
2022-12-20T07:20:10.894Z,1013.08
2022-12-20T07:21:04.494Z,1013.06
2022-12-20T07:22:04.473Z,1013.07
2022-12-20T07:23:04.445Z,1013.13
2022-12-20T07:24:04.466Z,1013.13
2022-12-20T07:25:04.429Z,1013.17
2022-12-20T07:26:04.421Z,1013.14
2022-12-20T07:27:04.388Z,1013.15
2022-12-20T07:28:04.378Z,1013.13
2022-12-20T07:29:04.392Z,1013.19
2022-12-20T07:30:04.367Z,1013.14
2022-12-20T07:31:04.383Z,1013.17
2022-12-20T07:32:04.400Z,1013.17
2022-12-20T07:33:04.331Z,1013.22
2022-12-20T07:34:04.318Z,1013.22
2022-12-20T07:35:04.310Z,1013.24
2022-12-20T07:36:04.297Z,1013.23
2022-12-20T07:37:04.279Z,1013.24
2022-12-20T07:38:04.269Z,1013.24
2022-12-20T07:39:04.268Z,1013.25
2022-12-20T07:40:04.242Z,1013.25
2022-12-20T07:41:04.247Z,1013.27
2022-12-20T07:42:04.370Z,1013.27
2022-12-20T07:43:04.220Z,1013.29
2022-12-20T07:44:04.213Z,1013.28
2022-12-20T07:45:04.194Z,1013.28
2022-12-20T07:46:04.228Z,1013.25
2022-12-20T07:47:04.165Z,1013.30
2022-12-20T07:48:10.289Z,1013.24
2022-12-20T07:49:04.148Z,1013.23
2022-12-20T07:50:04.135Z,1013.21
2022-12-20T07:51:04.142Z,1013.19
2022-12-20T07:52:04.133Z,1013.19
2022-12-20T07:53:04.210Z,1013.18
2022-12-20T07:54:04.089Z,1013.20
2022-12-20T07:55:04.078Z,1013.16
2022-12-20T07:56:04.067Z,1013.15
2022-12-20T07:57:04.064Z,1013.15
2022-12-20T07:58:04.052Z,1013.20
2022-12-20T07:59:04.035Z,1013.20
2022-12-20T08:00:04.023Z,1013.17
2022-12-20T08:01:04.086Z,1013.20
2022-12-20T08:02:05.142Z,1013.15
2022-12-20T08:03:04.013Z,1013.15
2022-12-20T08:04:04.031Z,1013.11
2022-12-20T08:05:03.977Z,1013.14
2022-12-20T08:06:04.039Z,1013.14
2022-12-20T08:07:03.963Z,1013.16
2022-12-20T08:08:03.934Z,1013.15
2022-12-20T08:09:03.951Z,1013.13
2022-12-20T08:10:03.912Z,1013.11
2022-12-20T08:11:03.906Z,1013.07
2022-12-20T08:12:03.894Z,1013.05
2022-12-20T08:13:03.889Z,1013.08
2022-12-20T08:14:03.869Z,1013.09
2022-12-20T08:15:03.859Z,1013.07
2022-12-20T08:16:03.860Z,1013.11
2022-12-20T08:17:03.961Z,1013.12
2022-12-20T08:18:03.830Z,1013.10
2022-12-20T08:19:03.812Z,1013.13
2022-12-20T08:20:03.808Z,1013.11
2022-12-20T08:21:03.794Z,1013.10
2022-12-20T08:22:03.844Z,1013.15
2022-12-20T08:23:03.819Z,1013.16
2022-12-20T08:24:03.778Z,1013.18
2022-12-20T08:25:03.756Z,1013.14
2022-12-20T08:26:03.739Z,1013.13
2022-12-20T08:27:03.734Z,1013.12
2022-12-20T08:28:03.720Z,1013.14
2022-12-20T08:29:03.706Z,1013.15
2022-12-20T08:30:03.720Z,1013.14
2022-12-20T08:31:03.737Z,1013.13
2022-12-20T08:32:03.679Z,1013.14
2022-12-20T08:33:03.705Z,1013.10
2022-12-20T08:34:03.660Z,1013.07
2022-12-20T08:35:03.640Z,1013.02
2022-12-20T08:36:03.673Z,1013.02
2022-12-20T08:37:06.556Z,1013.01
2022-12-20T08:38:03.606Z,1012.99
2022-12-20T08:39:03.611Z,1012.99
2022-12-20T08:40:03.619Z,1013.00
2022-12-20T08:41:03.575Z,1012.99
2022-12-20T08:42:03.564Z,1012.98
2022-12-20T08:43:09.759Z,1012.99
2022-12-20T08:44:03.570Z,1012.97
2022-12-20T08:45:03.537Z,1012.94
2022-12-20T08:46:03.539Z,1012.98
2022-12-20T08:47:03.538Z,1012.95
2022-12-20T08:48:03.497Z,1012.97
2022-12-20T08:49:03.484Z,1012.94
2022-12-20T08:50:03.480Z,1012.94
2022-12-20T08:51:03.546Z,1012.98
2022-12-20T08:52:03.456Z,1012.93
2022-12-20T08:53:03.466Z,1012.96
2022-12-20T08:54:03.434Z,1012.90
2022-12-20T08:55:05.328Z,1012.88
2022-12-20T08:56:03.413Z,1012.84
2022-12-20T08:57:03.399Z,1012.84
2022-12-20T08:58:03.391Z,1012.85
2022-12-20T08:59:03.387Z,1012.90
2022-12-20T09:00:03.367Z,1012.87
2022-12-20T09:01:06.687Z,1012.85
2022-12-20T09:02:03.421Z,1012.87
2022-12-20T09:03:03.543Z,1012.88
2022-12-20T09:04:03.380Z,1012.88
2022-12-20T09:05:03.318Z,1012.89
2022-12-20T09:06:03.304Z,1012.90
2022-12-20T09:07:03.293Z,1012.91
2022-12-20T09:08:03.288Z,1012.93
2022-12-20T09:09:03.275Z,1012.94
2022-12-20T09:10:03.260Z,1012.91
2022-12-20T09:11:03.248Z,1012.91
2022-12-20T09:12:03.247Z,1012.89
2022-12-20T09:13:03.242Z,1012.92
2022-12-20T09:14:03.243Z,1012.90
2022-12-20T09:15:03.205Z,1012.94
2022-12-20T09:16:03.268Z,1012.90
2022-12-20T09:17:03.192Z,1012.93
2022-12-20T09:18:03.256Z,1012.89
2022-12-20T09:19:06.127Z,1012.87
2022-12-20T09:20:03.151Z,1012.85
2022-12-20T09:21:03.152Z,1012.85
2022-12-20T09:22:03.125Z,1012.80
2022-12-20T09:23:03.118Z,1012.75
2022-12-20T09:24:03.174Z,1012.72
2022-12-20T09:25:03.097Z,1012.70
2022-12-20T09:26:03.085Z,1012.72
2022-12-20T09:27:03.081Z,1012.67
2022-12-20T09:28:03.070Z,1012.68
2022-12-20T09:29:03.071Z,1012.69
2022-12-20T09:30:03.043Z,1012.73
2022-12-20T09:31:03.097Z,1012.75
2022-12-20T09:32:03.032Z,1012.74
2022-12-20T09:33:10.388Z,1012.73
2022-12-20T09:34:03.013Z,1012.72
2022-12-20T09:35:03.019Z,1012.78
2022-12-20T09:36:03.002Z,1012.79
2022-12-20T09:37:02.969Z,1012.78
2022-12-20T09:38:02.965Z,1012.75
2022-12-20T09:39:02.963Z,1012.75
2022-12-20T09:40:02.937Z,1012.79
2022-12-20T09:41:02.932Z,1012.78
2022-12-20T09:42:02.958Z,1012.76
2022-12-20T09:43:02.908Z,1012.77
2022-12-20T09:44:02.902Z,1012.76
2022-12-20T09:45:02.885Z,1012.83
2022-12-20T09:46:02.989Z,1012.78
2022-12-20T09:47:08.415Z,1012.73
2022-12-20T09:48:02.851Z,1012.72
2022-12-20T09:49:02.851Z,1012.69
2022-12-20T09:50:02.855Z,1012.67
2022-12-20T09:51:02.822Z,1012.67
2022-12-20T09:52:02.814Z,1012.68
2022-12-20T09:53:02.839Z,1012.67
2022-12-20T09:54:02.797Z,1012.71
2022-12-20T09:55:02.849Z,1012.65
2022-12-20T09:56:02.777Z,1012.64
2022-12-20T09:57:02.772Z,1012.70
2022-12-20T09:58:02.754Z,1012.70
2022-12-20T09:59:02.755Z,1012.69
2022-12-20T10:00:02.737Z,1012.61
2022-12-20T10:01:02.720Z,1012.63
2022-12-20T10:02:19.410Z,1012.68
2022-12-20T10:03:09.802Z,1012.66
2022-12-20T10:04:02.986Z,1012.67
2022-12-20T10:05:02.830Z,1012.69
2022-12-20T10:06:02.851Z,1012.67
2022-12-20T10:07:02.910Z,1012.68
2022-12-20T10:08:02.654Z,1012.68
2022-12-20T10:09:02.649Z,1012.71
2022-12-20T10:10:02.637Z,1012.70
2022-12-20T10:11:02.618Z,1012.69
2022-12-20T10:12:02.614Z,1012.74
2022-12-20T10:13:02.598Z,1012.79
2022-12-20T10:14:02.594Z,1012.82
2022-12-20T10:15:02.583Z,1012.80
2022-12-20T10:16:02.595Z,1012.73
2022-12-20T10:17:02.560Z,1012.70
2022-12-20T10:18:02.567Z,1012.72
2022-12-20T10:19:02.541Z,1012.73
2022-12-20T10:20:02.524Z,1012.75
2022-12-20T10:21:02.517Z,1012.68
2022-12-20T10:22:02.517Z,1012.63
2022-12-20T10:23:02.502Z,1012.58
2022-12-20T10:24:02.490Z,1012.51
2022-12-20T10:25:02.479Z,1012.42
2022-12-20T10:26:02.465Z,1012.49
2022-12-20T10:27:02.473Z,1012.45
2022-12-20T10:28:02.450Z,1012.47
2022-12-20T10:29:02.472Z,1012.44
2022-12-20T10:30:02.428Z,1012.45
2022-12-20T10:31:02.518Z,1012.40
2022-12-20T10:32:02.410Z,1012.38
2022-12-20T10:33:02.401Z,1012.39
2022-12-20T10:34:02.394Z,1012.28
2022-12-20T10:35:02.383Z,1012.30
2022-12-20T10:36:02.475Z,1012.25
2022-12-20T10:37:02.364Z,1012.21
2022-12-20T10:38:09.102Z,1012.16
2022-12-20T10:39:02.381Z,1012.14
2022-12-20T10:40:07.352Z,1012.17
2022-12-20T10:41:20.826Z,1012.12
2022-12-20T10:42:02.308Z,1012.13
2022-12-20T10:43:02.313Z,1012.09
2022-12-20T10:44:02.297Z,1012.01
2022-12-20T10:45:02.291Z,1012.07
2022-12-20T10:46:02.317Z,1012.03
2022-12-20T10:47:02.318Z,1012.05
2022-12-20T10:48:02.251Z,1012.09
2022-12-20T10:49:02.245Z,1012.04
2022-12-20T10:50:02.232Z,1012.05
2022-12-20T10:51:02.218Z,1012.02
2022-12-20T10:52:02.211Z,1011.97
2022-12-20T10:53:02.225Z,1012.01
2022-12-20T10:54:02.198Z,1012.00
2022-12-20T10:55:02.186Z,1011.97
2022-12-20T10:56:02.172Z,1012.00
2022-12-20T10:57:02.165Z,1012.00
2022-12-20T10:58:02.156Z,1011.97
2022-12-20T10:59:02.145Z,1012.00
2022-12-20T11:00:02.159Z,1011.87
2022-12-20T11:01:02.123Z,1011.84
2022-12-20T11:02:02.219Z,1011.80
2022-12-20T11:03:02.276Z,1011.69
2022-12-20T11:04:02.556Z,1011.68
2022-12-20T11:05:02.095Z,1011.63
2022-12-20T11:06:02.113Z,1011.58
2022-12-20T11:07:02.066Z,1011.64
2022-12-20T11:08:34.836Z,1011.56
2022-12-20T11:09:02.049Z,1011.55
2022-12-20T11:10:02.039Z,1011.52
2022-12-20T11:11:02.035Z,1011.53
2022-12-20T11:12:02.026Z,1011.54
2022-12-20T11:13:02.014Z,1011.61
2022-12-20T11:14:01.996Z,1011.56
2022-12-20T11:15:01.988Z,1011.57
2022-12-20T11:16:02.195Z,1011.59
2022-12-20T11:17:01.974Z,1011.50
2022-12-20T11:18:01.972Z,1011.49
2022-12-20T11:19:01.974Z,1011.43
2022-12-20T11:20:02.045Z,1011.38
2022-12-20T11:21:01.930Z,1011.40
2022-12-20T11:22:01.917Z,1011.36
2022-12-20T11:23:01.931Z,1011.41
2022-12-20T11:24:01.903Z,1011.43
2022-12-20T11:25:01.891Z,1011.44
2022-12-20T11:26:01.891Z,1011.42
2022-12-20T11:27:01.869Z,1011.40
2022-12-20T11:28:01.861Z,1011.46
2022-12-20T11:29:01.848Z,1011.50
2022-12-20T11:30:01.853Z,1011.57
2022-12-20T11:31:01.927Z,1011.52
2022-12-20T11:32:01.887Z,1011.43
2022-12-20T11:33:01.832Z,1011.38
2022-12-20T11:34:01.829Z,1011.33
2022-12-20T11:35:01.810Z,1011.37
2022-12-20T11:36:01.797Z,1011.35
2022-12-20T11:37:01.779Z,1011.39
2022-12-20T11:38:08.892Z,1011.40
2022-12-20T11:39:01.760Z,1011.35
2022-12-20T11:40:01.829Z,1011.39
2022-12-20T11:41:01.747Z,1011.38
2022-12-20T11:42:01.727Z,1011.31
2022-12-20T11:43:01.720Z,1011.29
2022-12-20T11:44:24.444Z,1011.25
2022-12-20T11:45:08.756Z,1011.26
2022-12-20T11:46:01.695Z,1011.23
2022-12-20T11:47:01.753Z,1011.23
2022-12-20T11:48:01.675Z,1011.16
2022-12-20T11:49:01.662Z,1011.16
2022-12-20T11:50:01.657Z,1011.18
2022-12-20T11:51:01.649Z,1011.13
2022-12-20T11:52:01.639Z,1011.14
2022-12-20T11:53:01.632Z,1011.14
2022-12-20T11:54:01.661Z,1011.14
2022-12-20T11:55:01.606Z,1011.13
2022-12-20T11:56:01.600Z,1011.11
2022-12-20T11:57:01.736Z,1011.02
2022-12-20T11:58:18.064Z,1011.02
2022-12-20T11:59:01.569Z,1011.04
2022-12-20T12:00:01.566Z,1011.00
2022-12-20T12:01:01.551Z,1011.02
2022-12-20T12:02:01.690Z,1011.05
2022-12-20T12:03:01.556Z,1011.08
2022-12-20T12:04:01.522Z,1011.08
2022-12-20T12:05:01.650Z,1011.13